createdAt,value
2023-01-09T00:02:02.756Z,77.73
2023-01-09T00:04:29.450Z,78.06
2023-01-09T00:06:56.272Z,77.91
2023-01-09T00:09:24.410Z,77.86
2023-01-09T00:11:51.651Z,77.96
2023-01-09T00:14:19.003Z,77.69
2023-01-09T00:16:45.681Z,78.62
2023-01-09T00:19:12.599Z,78.26
2023-01-09T00:21:39.316Z,78.04
2023-01-09T00:24:06.695Z,78.18
2023-01-09T00:26:33.729Z,77.97
2023-01-09T00:29:00.364Z,78.31
2023-01-09T00:31:27.476Z,78.33
2023-01-09T00:34:06.180Z,78.17
2023-01-09T00:36:33.179Z,77.90
2023-01-09T00:38:59.994Z,78.09
2023-01-09T00:41:33.251Z,78.90
2023-01-09T00:44:04.813Z,78.32
2023-01-09T00:46:35.025Z,78.22
2023-01-09T00:49:05.254Z,78.45
2023-01-09T00:51:31.780Z,78.13
2023-01-09T00:53:58.555Z,78.36
2023-01-09T00:56:25.903Z,78.41
2023-01-09T00:58:53.240Z,78.50
2023-01-09T01:01:20.000Z,78.36
2023-01-09T01:03:46.700Z,78.56
2023-01-09T01:06:33.475Z,78.49
2023-01-09T01:08:59.994Z,78.69
2023-01-09T01:11:26.777Z,78.44
2023-01-09T01:13:53.860Z,78.44
2023-01-09T01:16:20.487Z,78.68
2023-01-09T01:18:47.120Z,78.95
2023-01-09T01:21:15.326Z,78.83
2023-01-09T01:23:42.148Z,78.54
2023-01-09T01:26:11.915Z,78.63
2023-01-09T01:28:39.464Z,78.62
2023-01-09T01:31:06.888Z,78.65
2023-01-09T01:33:34.657Z,78.47
2023-01-09T01:36:07.689Z,78.87
2023-01-09T01:38:35.596Z,78.88
2023-01-09T01:41:02.838Z,78.90
2023-01-09T01:43:49.478Z,78.83
2023-01-09T01:46:17.933Z,79.15
2023-01-09T01:48:46.104Z,79.07
2023-01-09T01:51:15.669Z,79.10
2023-01-09T01:53:48.366Z,79.45
2023-01-09T01:56:20.227Z,79.19
2023-01-09T02:01:59.466Z,79.27
2023-01-09T02:04:27.420Z,79.66
2023-01-09T02:06:56.262Z,79.83
2023-01-09T02:09:25.291Z,79.77
2023-01-09T02:11:56.471Z,79.68
2023-01-09T02:14:26.292Z,79.56
2023-01-09T02:20:08.442Z,79.63
2023-01-09T02:28:24.659Z,79.49
2023-01-09T02:31:01.304Z,79.56
2023-01-09T02:41:38.687Z,79.96
2023-01-09T02:44:23.812Z,79.73
2023-01-09T02:50:03.705Z,80.29
2023-01-09T02:58:15.724Z,79.85
2023-01-09T03:01:07.163Z,80.15
2023-01-09T03:03:42.860Z,80.24
2023-01-09T03:06:21.441Z,79.84
2023-01-09T03:08:54.073Z,80.03
2023-01-09T03:11:22.106Z,79.82
2023-01-09T03:13:55.509Z,79.79
2023-01-09T03:16:29.945Z,79.94
2023-01-09T03:18:58.633Z,79.98
2023-01-09T03:21:26.643Z,80.20
2023-01-09T03:23:59.128Z,79.99
2023-01-09T03:26:26.705Z,80.21
2023-01-09T03:28:53.312Z,80.03
2023-01-09T03:31:19.888Z,80.22
2023-01-09T03:33:46.617Z,80.19
2023-01-09T03:36:14.752Z,79.60
2023-01-09T03:38:41.341Z,79.87
2023-01-09T03:41:08.189Z,80.44
2023-01-09T03:43:35.275Z,79.87
2023-01-09T03:46:02.362Z,80.17
2023-01-09T03:48:29.198Z,80.26
2023-01-09T03:50:56.407Z,80.15
2023-01-09T03:53:25.018Z,79.67
2023-01-09T03:55:53.414Z,80.09
2023-01-09T03:58:20.928Z,80.27
2023-01-09T04:00:49.994Z,80.19
2023-01-09T04:03:20.143Z,80.35
2023-01-09T04:05:49.262Z,80.39
2023-01-09T04:08:16.746Z,80.11
2023-01-09T04:10:46.103Z,80.12
2023-01-09T04:13:12.991Z,80.19
2023-01-09T04:15:39.838Z,80.46
2023-01-09T04:18:06.712Z,80.79
2023-01-09T04:20:33.292Z,80.37
2023-01-09T04:22:59.960Z,80.54
2023-01-09T04:25:27.514Z,80.20
2023-01-09T04:27:54.175Z,80.72
2023-01-09T04:30:20.804Z,80.85
2023-01-09T04:32:47.508Z,80.48
2023-01-09T04:35:14.146Z,81.12
2023-01-09T04:37:40.836Z,80.53
2023-01-09T04:40:12.372Z,80.39
2023-01-09T04:42:39.622Z,80.61
2023-01-09T04:45:08.073Z,80.87
2023-01-09T04:47:34.650Z,80.98
2023-01-09T04:50:01.277Z,80.18
2023-01-09T04:52:28.272Z,80.13
2023-01-09T04:54:54.826Z,80.48
2023-01-09T04:57:21.398Z,80.52
2023-01-09T04:59:47.977Z,80.43
2023-01-09T05:02:14.748Z,80.35
2023-01-09T05:04:41.433Z,80.72
2023-01-09T05:07:08.155Z,80.67
2023-01-09T05:09:36.163Z,80.78
2023-01-09T05:12:02.996Z,80.59
2023-01-09T05:14:29.604Z,80.44
2023-01-09T05:16:56.409Z,80.39
2023-01-09T05:19:23.720Z,80.78
2023-01-09T05:21:50.466Z,80.86
2023-01-09T05:24:17.164Z,80.66
2023-01-09T05:26:43.711Z,80.71
2023-01-09T05:29:10.741Z,81.02
2023-01-09T05:31:37.484Z,80.22
2023-01-09T05:34:04.285Z,80.60
2023-01-09T05:36:30.865Z,80.48
2023-01-09T05:38:58.198Z,81.01
2023-01-09T05:41:26.264Z,81.04
2023-01-09T05:43:53.157Z,80.70
2023-01-09T05:46:19.844Z,81.26
2023-01-09T05:48:46.466Z,80.71
2023-01-09T05:51:13.057Z,81.08
2023-01-09T05:53:39.746Z,81.74
2023-01-09T05:56:06.723Z,80.31
2023-01-09T05:58:33.264Z,80.66
2023-01-09T06:00:59.919Z,80.83
2023-01-09T06:03:26.542Z,80.81
2023-01-09T06:05:53.082Z,80.15
2023-01-09T06:08:19.623Z,81.21
2023-01-09T06:10:47.122Z,80.51
2023-01-09T06:13:14.016Z,81.34
2023-01-09T06:15:40.734Z,80.92
2023-01-09T06:18:07.558Z,80.76
2023-01-09T06:20:34.612Z,80.57
2023-01-09T06:23:01.241Z,80.57
2023-01-09T06:25:27.802Z,80.68
2023-01-09T06:27:54.340Z,80.85
2023-01-09T06:30:21.056Z,80.42
2023-01-09T06:32:49.339Z,80.67
2023-01-09T06:35:20.515Z,80.33
2023-01-09T06:37:48.454Z,81.17
2023-01-09T06:40:15.238Z,80.43
2023-01-09T06:42:44.895Z,80.87
2023-01-09T06:45:12.385Z,80.38
2023-01-09T06:47:39.415Z,80.68
2023-01-09T06:50:07.409Z,80.54
2023-01-09T06:52:33.989Z,80.91
2023-01-09T06:55:00.522Z,80.94
2023-01-09T06:57:27.594Z,80.64
2023-01-09T06:59:54.215Z,80.79
2023-01-09T07:02:22.120Z,80.59
2023-01-09T07:04:48.650Z,80.68
2023-01-09T07:07:15.485Z,80.56
2023-01-09T07:09:42.062Z,80.87
2023-01-09T07:12:08.626Z,80.78
2023-01-09T07:14:35.164Z,80.64
2023-01-09T07:17:01.770Z,81.13
2023-01-09T07:19:28.356Z,80.78
2023-01-09T07:21:54.909Z,80.97
2023-01-09T07:24:21.436Z,80.78
2023-01-09T07:26:47.981Z,80.86
2023-01-09T07:29:14.544Z,80.74
2023-01-09T07:31:41.186Z,80.90
2023-01-09T07:34:07.806Z,80.85
2023-01-09T07:36:34.334Z,80.45
2023-01-09T07:39:00.890Z,80.98
2023-01-09T07:41:27.455Z,80.95
2023-01-09T07:43:53.979Z,80.73
2023-01-09T07:46:20.665Z,80.54
2023-01-09T07:48:47.235Z,80.73
2023-01-09T07:51:13.828Z,80.91
2023-01-09T07:53:40.373Z,80.59
2023-01-09T07:56:07.479Z,80.62
2023-01-09T07:58:34.068Z,80.64
2023-01-09T08:01:00.729Z,80.59
2023-01-09T08:03:27.299Z,80.56
2023-01-09T08:05:53.878Z,80.58
2023-01-09T08:08:20.485Z,80.61
2023-01-09T08:10:47.097Z,80.64
2023-01-09T08:13:13.639Z,81.19
2023-01-09T08:15:40.236Z,80.70
2023-01-09T08:18:06.808Z,80.51
2023-01-09T08:20:33.389Z,80.83
2023-01-09T08:22:59.898Z,80.98
2023-01-09T08:25:26.636Z,80.68
2023-01-09T08:27:53.182Z,81.02
2023-01-09T08:30:19.868Z,81.05
2023-01-09T08:32:51.777Z,80.46
2023-01-09T08:35:18.790Z,80.86
2023-01-09T08:37:47.398Z,80.67
2023-01-09T08:40:15.189Z,80.94
2023-01-09T08:43:02.315Z,81.66
2023-01-09T08:45:48.950Z,80.61
2023-01-09T08:48:15.968Z,80.06
2023-01-09T08:50:43.562Z,80.62
2023-01-09T08:53:10.890Z,80.24
2023-01-09T08:55:37.507Z,80.35
2023-01-09T08:58:04.037Z,79.59
2023-01-09T09:00:30.885Z,79.22
2023-01-09T09:03:00.311Z,79.50
2023-01-09T09:05:28.924Z,79.28
2023-01-09T09:07:56.017Z,80.23
2023-01-09T09:10:24.387Z,79.85
2023-01-09T09:12:53.266Z,79.83
2023-01-09T09:15:25.201Z,79.12
2023-01-09T09:17:54.731Z,80.26
2023-01-09T09:20:23.003Z,79.68
2023-01-09T09:22:50.942Z,80.33
2023-01-09T09:25:18.255Z,79.53
2023-01-09T09:27:45.957Z,79.06
2023-01-09T09:30:14.926Z,77.71
2023-01-09T09:32:41.561Z,76.33
2023-01-09T09:35:09.499Z,72.43
2023-01-09T09:37:37.045Z,71.75
2023-01-09T09:40:17.449Z,71.84
2023-01-09T09:46:09.349Z,73.47
2023-01-09T09:48:39.146Z,73.58
2023-01-09T09:51:20.429Z,73.00
2023-01-09T09:54:13.813Z,72.61
2023-01-09T09:57:00.748Z,72.84
2023-01-09T09:59:32.371Z,73.92
2023-01-09T10:02:04.073Z,73.32
2023-01-09T10:04:35.567Z,75.05
2023-01-09T10:07:09.505Z,74.04
2023-01-09T10:09:55.743Z,74.89
2023-01-09T10:15:15.507Z,74.17
2023-01-09T10:23:41.441Z,73.16
2023-01-09T10:39:35.495Z,68.44
2023-01-09T10:42:11.351Z,66.35
2023-01-09T10:44:49.059Z,65.48
2023-01-09T10:47:18.903Z,66.34
2023-01-09T10:49:47.839Z,66.48
2023-01-09T10:52:18.263Z,66.93
2023-01-09T10:55:25.521Z,67.41
2023-01-09T10:58:01.361Z,67.45
2023-01-09T11:00:28.394Z,66.91
2023-01-09T11:02:55.214Z,67.85
2023-01-09T11:05:27.899Z,67.28
2023-01-09T11:08:01.927Z,67.14
2023-01-09T11:10:50.203Z,66.22
2023-01-09T11:16:17.639Z,66.92
2023-01-09T11:18:55.515Z,67.63
2023-01-09T11:21:41.630Z,68.12
2023-01-09T11:24:28.962Z,68.54
2023-01-09T11:27:23.516Z,69.15
2023-01-09T11:30:27.926Z,68.66
2023-01-09T11:32:57.167Z,68.12
2023-01-09T11:35:27.883Z,68.38
2023-01-09T11:40:46.976Z,66.80
2023-01-09T11:43:19.875Z,67.45
2023-01-09T11:46:00.588Z,66.58
2023-01-09T11:51:18.627Z,66.85
2023-01-09T11:53:59.190Z,66.77
2023-01-09T11:56:25.981Z,66.22
2023-01-09T11:58:53.021Z,65.63
2023-01-09T12:12:52.047Z,66.77
2023-01-09T12:15:49.019Z,66.78
2023-01-09T12:26:44.275Z,66.39
2023-01-09T12:38:14.040Z,66.81
2023-01-09T12:46:10.531Z,66.00
2023-01-09T12:51:53.524Z,65.76
2023-01-09T12:54:37.130Z,65.44
2023-01-09T12:57:12.797Z,65.06
2023-01-09T12:59:46.165Z,66.33
2023-01-09T13:05:25.113Z,65.33
2023-01-09T13:07:59.009Z,66.40
2023-01-09T13:10:31.520Z,65.87
2023-01-09T13:13:06.582Z,65.76
2023-01-09T13:15:43.079Z,65.19
2023-01-09T13:18:20.867Z,64.70
2023-01-09T13:20:51.017Z,65.86
2023-01-09T13:23:57.436Z,65.32
2023-01-09T13:29:26.255Z,65.98
2023-01-09T13:34:36.016Z,65.52
2023-01-09T13:37:03.612Z,66.51
2023-01-09T13:39:32.645Z,65.58
2023-01-09T13:42:22.391Z,65.62
2023-01-09T13:44:52.249Z,65.90
2023-01-09T13:47:26.436Z,65.51
2023-01-09T13:52:39.448Z,66.17
2023-01-09T14:03:26.480Z,66.11
2023-01-09T14:08:31.146Z,65.69
2023-01-09T14:11:01.200Z,66.64
2023-01-09T14:13:32.884Z,66.68
2023-01-09T14:16:09.339Z,66.95
2023-01-09T14:18:40.135Z,66.30
2023-01-09T14:21:10.189Z,65.74
2023-01-09T14:23:52.644Z,65.81
2023-01-09T14:26:24.800Z,65.55
2023-01-09T14:28:51.844Z,65.47
2023-01-09T14:31:34.948Z,65.26
2023-01-09T14:34:39.289Z,66.12
2023-01-09T14:37:12.442Z,66.10
2023-01-09T14:39:44.477Z,65.59
2023-01-09T14:42:15.977Z,66.93
2023-01-09T14:47:29.793Z,65.95
2023-01-09T14:50:22.087Z,66.48
2023-01-09T14:52:52.096Z,65.82
2023-01-09T14:55:25.807Z,66.32
2023-01-09T14:57:55.506Z,66.20
2023-01-09T15:00:23.379Z,66.40
2023-01-09T15:02:52.729Z,67.49
2023-01-09T15:05:23.574Z,66.49
2023-01-09T15:08:02.467Z,65.98
2023-01-09T15:10:36.970Z,67.21
2023-01-09T15:13:08.978Z,67.09
2023-01-09T15:15:35.878Z,66.55
2023-01-09T15:18:07.596Z,66.20
2023-01-09T15:20:35.093Z,66.81
2023-01-09T15:23:04.726Z,66.81
2023-01-09T15:25:39.567Z,66.10
2023-01-09T15:28:26.300Z,66.56
2023-01-09T15:30:58.069Z,65.99
2023-01-09T15:33:25.062Z,66.56
2023-01-09T15:35:55.107Z,65.80
2023-01-09T15:38:24.247Z,65.71
2023-01-09T15:40:56.049Z,66.54
2023-01-09T15:43:23.077Z,66.58
2023-01-09T15:45:50.224Z,67.20
2023-01-09T15:51:18.580Z,66.31
2023-01-09T15:53:50.257Z,67.97
2023-01-09T15:58:54.782Z,67.80
2023-01-09T16:09:25.964Z,66.98
2023-01-09T16:11:56.125Z,67.86
2023-01-09T16:14:27.646Z,67.42
2023-01-09T16:17:00.979Z,66.87
2023-01-09T16:22:29.963Z,67.87
2023-01-09T16:25:02.318Z,67.47
2023-01-09T16:30:22.475Z,68.40
2023-01-09T16:32:51.507Z,67.53
2023-01-09T16:35:21.819Z,67.63
2023-01-09T16:37:48.450Z,67.24
2023-01-09T16:43:00.949Z,67.89
2023-01-09T16:45:38.120Z,67.10
2023-01-09T16:48:15.552Z,67.42
2023-01-09T16:50:43.234Z,67.71
2023-01-09T16:53:22.879Z,67.88
2023-01-09T16:55:50.361Z,68.31
2023-01-09T16:58:25.973Z,69.07
2023-01-09T17:00:53.312Z,68.78
2023-01-09T17:03:20.488Z,69.16
2023-01-09T17:05:58.408Z,68.88
2023-01-09T17:08:28.730Z,68.76
2023-01-09T17:10:56.452Z,69.30
2023-01-09T17:13:24.108Z,69.15
2023-01-09T17:15:52.833Z,68.65
2023-01-09T17:18:22.995Z,69.17
2023-01-09T17:20:53.077Z,69.08
2023-01-09T17:23:22.458Z,68.86
2023-01-09T17:26:11.292Z,69.24
2023-01-09T17:28:38.090Z,69.20
2023-01-09T17:31:09.166Z,69.30
2023-01-09T17:33:36.655Z,68.89
2023-01-09T17:36:06.197Z,69.26
2023-01-09T17:38:32.836Z,70.24
2023-01-09T17:40:59.403Z,69.25
2023-01-09T17:43:26.016Z,69.42
2023-01-09T17:45:52.746Z,70.33
2023-01-09T17:48:22.022Z,70.08
2023-01-09T17:50:49.349Z,70.55
2023-01-09T17:53:17.848Z,69.10
2023-01-09T17:55:44.447Z,69.28
2023-01-09T17:58:26.395Z,69.99
2023-01-09T18:00:53.112Z,70.19
2023-01-09T18:03:23.311Z,69.98
2023-01-09T18:05:50.030Z,69.97
2023-01-09T18:08:16.553Z,70.89
2023-01-09T18:10:45.413Z,69.69
2023-01-09T18:13:12.031Z,69.69
2023-01-09T18:15:42.417Z,70.05
2023-01-09T18:18:08.829Z,70.48
2023-01-09T18:20:39.474Z,69.94
2023-01-09T18:23:06.962Z,70.55
2023-01-09T18:25:33.588Z,70.18
2023-01-09T18:28:00.727Z,70.52
2023-01-09T18:30:27.577Z,70.28
2023-01-09T18:32:54.102Z,71.13
2023-01-09T18:35:20.661Z,70.53
2023-01-09T18:37:48.258Z,70.93
2023-01-09T18:40:14.914Z,70.15
2023-01-09T18:42:42.043Z,71.16
2023-01-09T18:45:09.165Z,71.20
2023-01-09T18:47:35.746Z,71.37
2023-01-09T18:50:02.293Z,70.73
2023-01-09T18:52:28.879Z,70.80
2023-01-09T18:54:55.425Z,71.58
2023-01-09T18:57:22.105Z,71.54
2023-01-09T18:59:48.686Z,71.68
2023-01-09T19:02:27.198Z,71.23
2023-01-09T19:04:53.773Z,71.26
2023-01-09T19:07:20.363Z,70.56
2023-01-09T19:09:47.350Z,70.93
2023-01-09T19:12:14.019Z,71.65
2023-01-09T19:14:40.612Z,71.21
2023-01-09T19:17:07.426Z,71.84
2023-01-09T19:19:34.571Z,71.38
2023-01-09T19:22:01.390Z,71.00
2023-01-09T19:24:28.246Z,71.11
2023-01-09T19:26:54.811Z,71.85
2023-01-09T19:29:21.505Z,70.62
2023-01-09T19:31:48.754Z,71.95
2023-01-09T19:34:16.139Z,71.58
2023-01-09T19:36:44.761Z,71.11
2023-01-09T19:39:11.728Z,70.67
2023-01-09T19:41:38.343Z,71.07
2023-01-09T19:44:05.324Z,71.87
2023-01-09T19:46:35.432Z,71.05
2023-01-09T19:49:04.933Z,70.78
2023-01-09T19:51:33.563Z,71.25
2023-01-09T19:56:32.108Z,72.06
2023-01-09T19:59:00.908Z,71.99
2023-01-09T20:01:31.454Z,71.81
2023-01-09T20:04:03.499Z,72.03
2023-01-09T20:06:31.269Z,71.88
2023-01-09T20:08:59.756Z,71.41
2023-01-09T20:11:29.000Z,71.54
2023-01-09T20:13:56.205Z,71.90
2023-01-09T20:16:28.711Z,72.29
2023-01-09T20:18:58.092Z,71.98
2023-01-09T20:21:27.594Z,71.65
2023-01-09T20:23:56.559Z,72.26
2023-01-09T20:26:24.773Z,71.85
2023-01-09T20:28:52.133Z,72.50
2023-01-09T20:31:20.852Z,72.05
2023-01-09T20:33:49.164Z,72.56
2023-01-09T20:36:15.961Z,71.69
2023-01-09T20:38:43.331Z,72.68
2023-01-09T20:41:12.756Z,72.97
2023-01-09T20:43:40.286Z,72.57
2023-01-09T20:46:07.714Z,72.37
2023-01-09T20:48:34.421Z,71.97
2023-01-09T20:51:06.713Z,72.54
2023-01-09T20:53:33.747Z,72.31
2023-01-09T20:56:04.008Z,73.00
2023-01-09T20:58:30.571Z,72.66
2023-01-09T21:00:57.196Z,73.01
2023-01-09T21:03:23.819Z,72.25
2023-01-09T21:05:50.462Z,72.73
2023-01-09T21:08:17.262Z,72.29
2023-01-09T21:10:44.129Z,72.97
2023-01-09T21:13:10.740Z,72.40
2023-01-09T21:15:38.725Z,72.76
2023-01-09T21:18:05.526Z,73.24
2023-01-09T21:20:32.072Z,72.49
2023-01-09T21:22:58.630Z,72.73
2023-01-09T21:25:25.777Z,72.79
2023-01-09T21:27:52.355Z,72.64
2023-01-09T21:30:19.309Z,73.12
2023-01-09T21:32:45.848Z,72.53
2023-01-09T21:35:12.551Z,72.85
2023-01-09T21:37:39.156Z,73.43
2023-01-09T21:40:08.970Z,73.56
2023-01-09T21:42:55.433Z,73.52
2023-01-09T21:45:42.001Z,73.21
2023-01-09T21:48:08.659Z,73.16
2023-01-09T21:50:35.883Z,73.01
2023-01-09T21:53:02.780Z,73.33
2023-01-09T21:55:32.081Z,73.86
2023-01-09T21:58:01.148Z,73.52
2023-01-09T22:00:28.658Z,73.70
2023-01-09T22:02:55.454Z,73.30
2023-01-09T22:05:24.411Z,73.61
2023-01-09T22:07:51.695Z,73.82
2023-01-09T22:10:18.369Z,74.08
2023-01-09T22:13:04.971Z,73.79
2023-01-09T22:15:31.626Z,73.62
2023-01-09T22:17:58.201Z,73.69
2023-01-09T22:20:24.762Z,73.77
2023-01-09T22:22:51.424Z,73.98
2023-01-09T22:25:18.087Z,74.17
2023-01-09T22:27:44.727Z,74.65
2023-01-09T22:30:12.052Z,74.47
2023-01-09T22:32:38.608Z,74.37
2023-01-09T22:35:05.830Z,74.41
2023-01-09T22:37:33.131Z,74.42
2023-01-09T22:39:59.712Z,74.30
2023-01-09T22:42:26.317Z,74.24
2023-01-09T22:44:52.886Z,74.21
2023-01-09T22:47:19.584Z,74.13
2023-01-09T22:49:52.752Z,73.99
2023-01-09T22:52:20.197Z,74.33
2023-01-09T22:54:47.831Z,74.03
2023-01-09T22:57:14.432Z,74.53
2023-01-09T22:59:40.974Z,74.36
2023-01-09T23:02:07.713Z,74.69
2023-01-09T23:04:34.346Z,74.43
2023-01-09T23:07:01.066Z,74.20
2023-01-09T23:09:27.776Z,74.41
2023-01-09T23:12:09.982Z,74.75
2023-01-09T23:14:38.296Z,74.98
2023-01-09T23:17:06.983Z,75.13
2023-01-09T23:19:35.178Z,74.78
2023-01-09T23:22:03.396Z,74.52
2023-01-09T23:24:30.643Z,74.69
2023-01-09T23:26:57.420Z,74.68
2023-01-09T23:29:24.856Z,74.64
2023-01-09T23:31:53.695Z,74.83
2023-01-09T23:34:24.174Z,75.15
2023-01-09T23:36:51.350Z,75.00
2023-01-09T23:39:18.178Z,74.93
2023-01-09T23:42:04.992Z,75.97
2023-01-09T23:44:31.677Z,75.13
2023-01-09T23:46:58.279Z,75.60
2023-01-09T23:49:24.862Z,74.88
2023-01-09T23:51:51.534Z,75.30
2023-01-09T23:54:18.193Z,75.30
2023-01-09T23:56:44.962Z,75.28
2023-01-09T23:59:13.143Z,75.05
